sensor_id;sensor_type;location;lat;lon;timestamp;pressure;altitude;pressure_sealevel;temperature;humidity
48796;BME280;34607;48.520;-1.330;2022-07-29T00:00:10;100150.25;;;20.37;75.15
48796;BME280;34607;48.520;-1.330;2022-07-29T00:02:38;100145.06;;;20.34;74.41
48796;BME280;34607;48.520;-1.330;2022-07-29T00:05:05;100144.06;;;20.39;74.54
48796;BME280;34607;48.520;-1.330;2022-07-29T00:07:32;100133.66;;;20.35;73.43
48796;BME280;34607;48.520;-1.330;2022-07-29T00:09:59;100139.59;;;20.43;72.75
48796;BME280;34607;48.520;-1.330;2022-07-29T00:12:27;100131.78;;;20.40;71.91
48796;BME280;34607;48.520;-1.330;2022-07-29T00:14:56;100132.38;;;20.50;71.19
48796;BME280;34607;48.520;-1.330;2022-07-29T00:17:24;100133.97;;;20.55;71.50
48796;BME280;34607;48.520;-1.330;2022-07-29T00:19:51;100117.50;;;20.49;70.84
48796;BME280;34607;48.520;-1.330;2022-07-29T00:22:18;100129.44;;;20.61;70.37
48796;BME280;34607;48.520;-1.330;2022-07-29T00:24:47;100123.44;;;20.55;70.88
48796;BME280;34607;48.520;-1.330;2022-07-29T00:27:14;100131.22;;;20.60;70.87
48796;BME280;34607;48.520;-1.330;2022-07-29T00:29:41;100123.38;;;20.58;70.49
48796;BME280;34607;48.520;-1.330;2022-07-29T00:32:10;100124.22;;;20.59;70.28
48796;BME280;34607;48.520;-1.330;2022-07-29T00:34:37;100115.56;;;20.55;69.54
48796;BME280;34607;48.520;-1.330;2022-07-29T00:37:21;100120.56;;;20.65;69.72
48796;BME280;34607;48.520;-1.330;2022-07-29T00:39:48;100108.31;;;20.65;68.44
48796;BME280;34607;48.520;-1.330;2022-07-29T00:42:15;100099.47;;;20.66;68.28
48796;BME280;34607;48.520;-1.330;2022-07-29T00:44:42;100104.75;;;20.66;68.40
48796;BME280;34607;48.520;-1.330;2022-07-29T00:47:11;100109.97;;;20.68;69.54
48796;BME280;34607;48.520;-1.330;2022-07-29T00:49:39;100105.72;;;20.64;68.34
48796;BME280;34607;48.520;-1.330;2022-07-29T00:52:07;100104.75;;;20.66;67.89
48796;BME280;34607;48.520;-1.330;2022-07-29T00:54:35;100102.13;;;20.66;67.40
48796;BME280;34607;48.520;-1.330;2022-07-29T00:57:02;100099.41;;;20.69;67.13
48796;BME280;34607;48.520;-1.330;2022-07-29T00:59:29;100099.41;;;20.69;66.80
48796;BME280;34607;48.520;-1.330;2022-07-29T01:01:57;100101.19;;;20.69;66.56
48796;BME280;34607;48.520;-1.330;2022-07-29T01:04:25;100099.28;;;20.74;66.71
48796;BME280;34607;48.520;-1.330;2022-07-29T01:06:54;100097.31;;;20.81;66.47
48796;BME280;34607;48.520;-1.330;2022-07-29T01:09:21;100099.16;;;20.79;66.55
48796;BME280;34607;48.520;-1.330;2022-07-29T01:11:49;100102.59;;;20.81;66.39
48796;BME280;34607;48.520;-1.330;2022-07-29T01:14:16;100104.25;;;20.83;66.31
48796;BME280;34607;48.520;-1.330;2022-07-29T01:16:49;100106.78;;;20.86;66.13
48796;BME280;34607;48.520;-1.330;2022-07-29T01:19:39;100105.94;;;20.86;66.06
48796;BME280;34607;48.520;-1.330;2022-07-29T01:22:25;100099.03;;;20.82;66.00
48796;BME280;34607;48.520;-1.330;2022-07-29T01:31:21;100091.38;;;20.74;67.25
48796;BME280;34607;48.520;-1.330;2022-07-29T01:33:55;100095.50;;;20.83;67.12
48796;BME280;34607;48.520;-1.330;2022-07-29T01:36:28;100102.44;;;20.85;66.92
48796;BME280;34607;48.520;-1.330;2022-07-29T01:39:02;100091.03;;;20.85;66.90
48796;BME280;34607;48.520;-1.330;2022-07-29T01:41:32;100097.13;;;20.87;66.63
48796;BME280;34607;48.520;-1.330;2022-07-29T01:44:02;100101.50;;;20.88;66.50
48796;BME280;34607;48.520;-1.330;2022-07-29T01:46:40;100096.19;;;20.89;66.41
48796;BME280;34607;48.520;-1.330;2022-07-29T01:49:13;100102.34;;;20.88;66.08
48796;BME280;34607;48.520;-1.330;2022-07-29T01:51:45;100104.16;;;20.86;66.36
48796;BME280;34607;48.520;-1.330;2022-07-29T01:54:18;100103.47;;;20.80;66.32
48796;BME280;34607;48.520;-1.330;2022-07-29T01:56:49;100103.72;;;20.72;66.97
48796;BME280;34607;48.520;-1.330;2022-07-29T01:59:17;100101.22;;;20.67;67.42
48796;BME280;34607;48.520;-1.330;2022-07-29T02:01:47;100103.59;;;20.75;67.15
48796;BME280;34607;48.520;-1.330;2022-07-29T02:04:16;100102.75;;;20.74;66.98
48796;BME280;34607;48.520;-1.330;2022-07-29T02:06:45;100105.44;;;20.73;67.00
48796;BME280;34607;48.520;-1.330;2022-07-29T02:09:14;100098.63;;;20.66;66.90
48796;BME280;34607;48.520;-1.330;2022-07-29T02:11:47;100101.81;;;20.77;66.67
48796;BME280;34607;48.520;-1.330;2022-07-29T02:14:18;100109.88;;;20.71;66.70
48796;BME280;34607;48.520;-1.330;2022-07-29T02:16:47;100109.91;;;20.69;67.97
48796;BME280;34607;48.520;-1.330;2022-07-29T02:19:17;100109.03;;;20.70;68.89
48796;BME280;34607;48.520;-1.330;2022-07-29T02:21:45;100098.63;;;20.66;68.79
48796;BME280;34607;48.520;-1.330;2022-07-29T02:24:14;100107.28;;;20.69;68.92
48796;BME280;34607;48.520;-1.330;2022-07-29T02:26:43;100086.78;;;20.49;68.20
48796;BME280;34607;48.520;-1.330;2022-07-29T02:29:12;100106.66;;;20.59;68.44
48796;BME280;34607;48.520;-1.330;2022-07-29T02:31:44;100104.13;;;20.56;68.03
48796;BME280;34607;48.520;-1.330;2022-07-29T02:34:15;100093.88;;;20.47;67.71
48796;BME280;34607;48.520;-1.330;2022-07-29T02:36:44;100100.66;;;20.54;67.40
48796;BME280;34607;48.520;-1.330;2022-07-29T02:39:12;100100.53;;;20.59;68.29
48796;BME280;34607;48.520;-1.330;2022-07-29T02:41:43;100089.06;;;20.63;68.06
48796;BME280;34607;48.520;-1.330;2022-07-29T02:44:13;100100.16;;;20.73;68.84
48796;BME280;34607;48.520;-1.330;2022-07-29T02:46:46;100102.13;;;20.66;67.66
48796;BME280;34607;48.520;-1.330;2022-07-29T02:49:21;100099.72;;;20.57;67.50
48796;BME280;34607;48.520;-1.330;2022-07-29T02:51:55;100102.31;;;20.58;68.52
48796;BME280;34607;48.520;-1.330;2022-07-29T02:54:31;100102.25;;;20.62;69.35
48796;BME280;34607;48.520;-1.330;2022-07-29T02:57:00;100089.22;;;20.57;68.59
48796;BME280;34607;48.520;-1.330;2022-07-29T02:59:34;100097.88;;;20.62;69.55
48796;BME280;34607;48.520;-1.330;2022-07-29T03:02:04;100101.34;;;20.61;70.34
48796;BME280;34607;48.520;-1.330;2022-07-29T03:04:34;100086.69;;;20.52;70.78
48796;BME280;34607;48.520;-1.330;2022-07-29T03:07:03;100097.22;;;20.52;69.29
48796;BME280;34607;48.520;-1.330;2022-07-29T03:09:32;100101.56;;;20.55;69.19
48796;BME280;34607;48.520;-1.330;2022-07-29T03:12:00;100107.66;;;20.55;69.56
48796;BME280;34607;48.520;-1.330;2022-07-29T03:14:28;100112.13;;;20.53;70.47
48796;BME280;34607;48.520;-1.330;2022-07-29T03:16:56;100117.56;;;20.46;70.59
48796;BME280;34607;48.520;-1.330;2022-07-29T03:19:24;100111.69;;;20.37;70.50
48796;BME280;34607;48.520;-1.330;2022-07-29T03:21:56;100110.81;;;20.37;71.46
48796;BME280;34607;48.520;-1.330;2022-07-29T03:24:27;100114.56;;;20.28;71.49
48796;BME280;34607;48.520;-1.330;2022-07-29T03:26:55;100111.28;;;20.20;72.17
48796;BME280;34607;48.520;-1.330;2022-07-29T03:29:23;100107.84;;;20.18;72.02
48796;BME280;34607;48.520;-1.330;2022-07-29T03:31:51;100117.41;;;20.20;71.81
48796;BME280;34607;48.520;-1.330;2022-07-29T03:34:19;100121.91;;;20.17;72.29
48796;BME280;34607;48.520;-1.330;2022-07-29T03:36:46;100117.59;;;20.13;72.24
48796;BME280;34607;48.520;-1.330;2022-07-29T03:39:19;100120.19;;;20.14;71.56
48796;BME280;34607;48.520;-1.330;2022-07-29T03:41:49;100114.81;;;20.19;71.72
48796;BME280;34607;48.520;-1.330;2022-07-29T03:44:20;100101.16;;;20.05;72.44
48796;BME280;34607;48.520;-1.330;2022-07-29T03:46:48;100111.66;;;20.06;73.25
48796;BME280;34607;48.520;-1.330;2022-07-29T03:49:17;100092.59;;;19.98;73.41
48796;BME280;34607;48.520;-1.330;2022-07-29T03:51:45;100114.34;;;20.03;73.68
48796;BME280;34607;48.520;-1.330;2022-07-29T03:54:14;100112.66;;;20.02;73.89
48796;BME280;34607;48.520;-1.330;2022-07-29T03:56:43;100109.97;;;20.04;74.12
48796;BME280;34607;48.520;-1.330;2022-07-29T03:59:13;100115.31;;;20.00;74.18
48796;BME280;34607;48.520;-1.330;2022-07-29T04:01:41;100115.38;;;19.97;75.26
48796;BME280;34607;48.520;-1.330;2022-07-29T04:04:09;100116.34;;;19.95;75.34
48796;BME280;34607;48.520;-1.330;2022-07-29T04:06:40;100115.47;;;19.94;75.85
48796;BME280;34607;48.520;-1.330;2022-07-29T04:09:07;100112.84;;;19.94;75.34
48796;BME280;34607;48.520;-1.330;2022-07-29T04:11:38;100116.34;;;19.95;75.35
48796;BME280;34607;48.520;-1.330;2022-07-29T04:14:05;100106.09;;;19.84;74.67
48796;BME280;34607;48.520;-1.330;2022-07-29T04:16:32;100111.16;;;19.92;73.71
48796;BME280;34607;48.520;-1.330;2022-07-29T04:18:59;100105.28;;;19.82;73.00
48796;BME280;34607;48.520;-1.330;2022-07-29T04:21:27;100110.34;;;19.90;72.76
48796;BME280;34607;48.520;-1.330;2022-07-29T04:23:54;100106.75;;;19.92;73.51
48796;BME280;34607;48.520;-1.330;2022-07-29T04:26:21;100114.69;;;19.91;72.99
48796;BME280;34607;48.520;-1.330;2022-07-29T04:28:50;100115.63;;;19.88;73.50
48796;BME280;34607;48.520;-1.330;2022-07-29T04:31:17;100117.34;;;19.89;73.90
48796;BME280;34607;48.520;-1.330;2022-07-29T04:33:44;100102.47;;;19.90;73.99
48796;BME280;34607;48.520;-1.330;2022-07-29T04:36:11;100113.00;;;19.88;74.72
48796;BME280;34607;48.520;-1.330;2022-07-29T04:38:38;100117.34;;;19.89;74.60
48796;BME280;34607;48.520;-1.330;2022-07-29T04:41:06;100098.31;;;19.81;74.57
48796;BME280;34607;48.520;-1.330;2022-07-29T04:43:34;100112.19;;;19.86;75.32
48796;BME280;34607;48.520;-1.330;2022-07-29T04:46:02;100115.78;;;19.82;75.65
48796;BME280;34607;48.520;-1.330;2022-07-29T04:48:29;100122.00;;;19.79;75.86
48796;BME280;34607;48.520;-1.330;2022-07-29T04:50:57;100118.53;;;19.77;75.91
48796;BME280;34607;48.520;-1.330;2022-07-29T04:53:24;100119.44;;;19.76;76.11
48796;BME280;34607;48.520;-1.330;2022-07-29T04:55:51;100117.81;;;19.71;76.55
48796;BME280;34607;48.520;-1.330;2022-07-29T04:58:18;100114.25;;;19.72;77.13
48796;BME280;34607;48.520;-1.330;2022-07-29T05:00:45;100118.66;;;19.71;76.89
48796;BME280;34607;48.520;-1.330;2022-07-29T05:03:13;100116.06;;;19.70;76.61
48796;BME280;34607;48.520;-1.330;2022-07-29T05:05:40;100100.66;;;19.56;77.67
48796;BME280;34607;48.520;-1.330;2022-07-29T05:08:07;100114.50;;;19.62;77.55
48796;BME280;34607;48.520;-1.330;2022-07-29T05:10:35;100123.91;;;19.71;77.15
48796;BME280;34607;48.520;-1.330;2022-07-29T05:13:04;100116.84;;;19.75;77.44
48796;BME280;34607;48.520;-1.330;2022-07-29T05:15:32;100120.22;;;19.80;77.63
48796;BME280;34607;48.520;-1.330;2022-07-29T05:17:59;100127.97;;;19.86;77.50
48796;BME280;34607;48.520;-1.330;2022-07-29T05:20:28;100121.63;;;19.93;77.83
48796;BME280;34607;48.520;-1.330;2022-07-29T05:22:55;100122.31;;;20.01;76.01
48796;BME280;34607;48.520;-1.330;2022-07-29T05:25:22;100121.06;;;20.15;75.26
48796;BME280;34607;48.520;-1.330;2022-07-29T05:27:49;100135.47;;;20.33;74.38
48796;BME280;34607;48.520;-1.330;2022-07-29T05:30:16;100138.00;;;20.37;74.51
48796;BME280;34607;48.520;-1.330;2022-07-29T05:32:43;100136.09;;;20.43;73.68
48796;BME280;34607;48.520;-1.330;2022-07-29T05:35:12;100131.88;;;20.35;71.49
48796;BME280;34607;48.520;-1.330;2022-07-29T05:37:41;100138.78;;;20.41;71.84
48796;BME280;34607;48.520;-1.330;2022-07-29T05:40:08;100139.63;;;20.42;70.60
48796;BME280;34607;48.520;-1.330;2022-07-29T05:42:35;100136.22;;;20.38;69.99
48796;BME280;34607;48.520;-1.330;2022-07-29T05:45:03;100150.09;;;20.43;69.59
48796;BME280;34607;48.520;-1.330;2022-07-29T05:47:30;100150.88;;;20.47;69.84
48796;BME280;34607;48.520;-1.330;2022-07-29T05:49:57;100144.66;;;20.49;69.76
48796;BME280;34607;48.520;-1.330;2022-07-29T05:52:24;100147.19;;;20.52;69.28
48796;BME280;34607;48.520;-1.330;2022-07-29T05:54:53;100153.25;;;20.56;69.11
48796;BME280;34607;48.520;-1.330;2022-07-29T05:57:22;100147.91;;;20.59;68.80
48796;BME280;34607;48.520;-1.330;2022-07-29T05:59:50;100148.66;;;20.64;68.96
48796;BME280;34607;48.520;-1.330;2022-07-29T06:02:17;100132.91;;;20.63;69.30
48796;BME280;34607;48.520;-1.330;2022-07-29T06:04:44;100152.72;;;20.76;69.10
48796;BME280;34607;48.520;-1.330;2022-07-29T06:07:11;100159.78;;;20.74;68.60
48796;BME280;34607;48.520;-1.330;2022-07-29T06:09:38;100148.31;;;20.76;68.43
48796;BME280;34607;48.520;-1.330;2022-07-29T06:12:07;100149.00;;;20.83;68.24
48796;BME280;34607;48.520;-1.330;2022-07-29T06:14:34;100155.03;;;20.87;68.16
48796;BME280;34607;48.520;-1.330;2022-07-29T06:17:03;100152.91;;;21.00;68.04
48796;BME280;34607;48.520;-1.330;2022-07-29T06:19:30;100150.28;;;21.00;67.63
48796;BME280;34607;48.520;-1.330;2022-07-29T06:21:57;100156.25;;;21.05;67.82
48796;BME280;34607;48.520;-1.330;2022-07-29T06:24:24;100162.22;;;21.11;67.97
48796;BME280;34607;48.520;-1.330;2022-07-29T06:26:52;100169.22;;;21.11;67.81
48796;BME280;34607;48.520;-1.330;2022-07-29T06:29:21;100161.31;;;21.11;67.71
48796;BME280;34607;48.520;-1.330;2022-07-29T06:31:48;100168.31;;;21.12;68.14
48796;BME280;34607;48.520;-1.330;2022-07-29T06:34:15;100172.41;;;21.22;67.99
48796;BME280;34607;48.520;-1.330;2022-07-29T06:36:42;100179.25;;;21.28;67.47
48796;BME280;34607;48.520;-1.330;2022-07-29T06:39:09;100178.13;;;21.35;67.73
48796;BME280;34607;48.520;-1.330;2022-07-29T06:41:36;100179.88;;;21.36;67.46
48796;BME280;34607;48.520;-1.330;2022-07-29T06:44:08;100180.69;;;21.38;67.65
48796;BME280;34607;48.520;-1.330;2022-07-29T06:46:37;100177.88;;;21.44;67.64
48796;BME280;34607;48.520;-1.330;2022-07-29T06:49:04;100175.25;;;21.44;67.39
48796;BME280;34607;48.520;-1.330;2022-07-29T06:51:31;100181.03;;;21.56;67.30
48796;BME280;34607;48.520;-1.330;2022-07-29T06:53:58;100180.00;;;21.61;67.42
48796;BME280;34607;48.520;-1.330;2022-07-29T06:56:26;100179.00;;;21.65;67.19
48796;BME280;34607;48.520;-1.330;2022-07-29T06:58:53;100188.78;;;21.62;67.34
48796;BME280;34607;48.520;-1.330;2022-07-29T07:01:20;100184.13;;;21.70;67.79
48796;BME280;34607;48.520;-1.330;2022-07-29T07:03:48;100183.44;;;21.63;67.47
48796;BME280;34607;48.520;-1.330;2022-07-29T07:06:15;100188.69;;;21.65;67.40
48796;BME280;34607;48.520;-1.330;2022-07-29T07:08:43;100189.34;;;21.72;66.62
48796;BME280;34607;48.520;-1.330;2022-07-29T07:11:10;100198.78;;;21.79;66.80
48796;BME280;34607;48.520;-1.330;2022-07-29T07:13:37;100198.09;;;21.72;66.50
48796;BME280;34607;48.520;-1.330;2022-07-29T07:16:04;100203.41;;;21.70;66.86
48796;BME280;34607;48.520;-1.330;2022-07-29T07:18:31;100206.00;;;21.72;66.94
48796;BME280;34607;48.520;-1.330;2022-07-29T07:21:00;100205.88;;;21.77;66.83
48796;BME280;34607;48.520;-1.330;2022-07-29T07:23:27;100202.91;;;21.86;66.61
48796;BME280;34607;48.520;-1.330;2022-07-29T07:25:54;100206.31;;;21.89;66.88
48796;BME280;34607;48.520;-1.330;2022-07-29T07:28:21;100202.56;;;21.97;67.11
48796;BME280;34607;48.520;-1.330;2022-07-29T07:30:49;100205.91;;;22.02;66.78
48796;BME280;34607;48.520;-1.330;2022-07-29T07:33:16;100210.47;;;22.23;66.45
48796;BME280;34607;48.520;-1.330;2022-07-29T07:35:43;100208.56;;;22.54;65.94
48796;BME280;34607;48.520;-1.330;2022-07-29T07:38:11;100216.81;;;22.70;65.66
48796;BME280;34607;48.520;-1.330;2022-07-29T07:40:38;100216.53;;;23.01;65.59
48796;BME280;34607;48.520;-1.330;2022-07-29T07:43:05;100214.44;;;23.11;64.41
48796;BME280;34607;48.520;-1.330;2022-07-29T07:45:32;100209.28;;;23.08;64.66
48796;BME280;34607;48.520;-1.330;2022-07-29T07:48:00;100217.78;;;23.16;64.17
48796;BME280;34607;48.520;-1.330;2022-07-29T07:50:27;100208.56;;;23.26;64.23
48796;BME280;34607;48.520;-1.330;2022-07-29T07:52:55;100220.06;;;23.47;64.29
48796;BME280;34607;48.520;-1.330;2022-07-29T07:55:25;100217.56;;;23.66;63.33
48796;BME280;34607;48.520;-1.330;2022-07-29T07:57:52;100214.56;;;23.75;63.27
48796;BME280;34607;48.520;-1.330;2022-07-29T08:00:20;100218.78;;;23.80;62.85
48796;BME280;34607;48.520;-1.330;2022-07-29T08:02:47;100216.72;;;23.88;62.62
48796;BME280;34607;48.520;-1.330;2022-07-29T08:05:15;100213.09;;;23.90;61.95
48796;BME280;34607;48.520;-1.330;2022-07-29T08:07:44;100225.47;;;23.90;62.01
48796;BME280;34607;48.520;-1.330;2022-07-29T08:10:12;100206.81;;;23.71;62.41
48796;BME280;34607;48.520;-1.330;2022-07-29T08:12:41;100215.28;;;23.79;61.99
48796;BME280;34607;48.520;-1.330;2022-07-29T08:15:08;100219.28;;;24.11;62.10
48796;BME280;34607;48.520;-1.330;2022-07-29T08:17:36;100209.09;;;24.23;61.72
48796;BME280;34607;48.520;-1.330;2022-07-29T08:20:04;100224.84;;;24.46;60.89
48796;BME280;34607;48.520;-1.330;2022-07-29T08:22:31;100218.59;;;24.70;61.62
48796;BME280;34607;48.520;-1.330;2022-07-29T08:24:58;100218.13;;;24.60;60.37
48796;BME280;34607;48.520;-1.330;2022-07-29T08:27:25;100229.78;;;24.56;60.68
48796;BME280;34607;48.520;-1.330;2022-07-29T08:29:56;100230.03;;;24.49;60.98
48796;BME280;34607;48.520;-1.330;2022-07-29T08:32:23;100234.53;;;24.47;60.97
48796;BME280;34607;48.520;-1.330;2022-07-29T08:34:50;100222.34;;;24.43;61.44
48796;BME280;34607;48.520;-1.330;2022-07-29T08:37:17;100229.88;;;24.32;61.35
48796;BME280;34607;48.520;-1.330;2022-07-29T08:39:44;100229.53;;;24.40;61.59
48796;BME280;34607;48.520;-1.330;2022-07-29T08:42:11;100230.72;;;24.55;61.56
48796;BME280;34607;48.520;-1.330;2022-07-29T08:44:39;100219.38;;;24.72;61.31
48796;BME280;34607;48.520;-1.330;2022-07-29T08:47:08;100234.75;;;25.03;60.85
48796;BME280;34607;48.520;-1.330;2022-07-29T08:49:35;100228.47;;;25.24;61.23
48796;BME280;34607;48.520;-1.330;2022-07-29T08:52:02;100230.53;;;25.18;60.26
48796;BME280;34607;48.520;-1.330;2022-07-29T08:54:29;100238.63;;;25.15;60.58
48796;BME280;34607;48.520;-1.330;2022-07-29T08:56:57;100241.44;;;25.31;61.53
48796;BME280;34607;48.520;-1.330;2022-07-29T08:59:26;100240.34;;;25.73;61.10
48796;BME280;34607;48.520;-1.330;2022-07-29T09:01:54;100233.94;;;25.77;59.82
48796;BME280;34607;48.520;-1.330;2022-07-29T09:04:27;100245.13;;;25.84;59.57
48796;BME280;34607;48.520;-1.330;2022-07-29T09:06:57;100238.66;;;25.89;59.29
48796;BME280;34607;48.520;-1.330;2022-07-29T09:09:26;100245.16;;;26.01;59.25
48796;BME280;34607;48.520;-1.330;2022-07-29T09:11:53;100237.94;;;25.49;60.00
48796;BME280;34607;48.520;-1.330;2022-07-29T09:14:21;100241.53;;;25.48;59.92
48796;BME280;34607;48.520;-1.330;2022-07-29T09:16:50;100241.31;;;25.34;60.31
48796;BME280;34607;48.520;-1.330;2022-07-29T09:19:27;100246.25;;;25.41;59.78
48796;BME280;34607;48.520;-1.330;2022-07-29T09:21:56;100243.03;;;25.35;60.49
48796;BME280;34607;48.520;-1.330;2022-07-29T09:24:42;100237.53;;;25.76;60.48
48796;BME280;34607;48.520;-1.330;2022-07-29T09:27:26;100251.38;;;25.83;59.09
48796;BME280;34607;48.520;-1.330;2022-07-29T09:29:59;100248.13;;;25.58;59.70
48796;BME280;34607;48.520;-1.330;2022-07-29T09:32:26;100244.00;;;25.51;59.82
48796;BME280;34607;48.520;-1.330;2022-07-29T09:35:15;100244.34;;;25.82;59.69
48796;BME280;34607;48.520;-1.330;2022-07-29T09:37:42;100250.59;;;26.00;59.94
48796;BME280;34607;48.520;-1.330;2022-07-29T09:40:14;100252.91;;;26.41;58.70
48796;BME280;34607;48.520;-1.330;2022-07-29T09:42:42;100249.97;;;26.64;58.82
48796;BME280;34607;48.520;-1.330;2022-07-29T09:45:10;100240.25;;;26.46;58.64
48796;BME280;34607;48.520;-1.330;2022-07-29T09:47:41;100256.75;;;26.52;59.04
48796;BME280;34607;48.520;-1.330;2022-07-29T09:50:10;100254.97;;;26.70;59.08
48796;BME280;34607;48.520;-1.330;2022-07-29T09:52:47;100246.56;;;26.96;58.51
48796;BME280;34607;48.520;-1.330;2022-07-29T09:55:15;100229.22;;;26.88;57.86
48796;BME280;34607;48.520;-1.330;2022-07-29T09:57:42;100259.13;;;26.92;58.06
48796;BME280;34607;48.520;-1.330;2022-07-29T10:00:12;100261.97;;;26.89;58.49
48796;BME280;34607;48.520;-1.330;2022-07-29T10:02:41;100246.97;;;27.04;58.66
48796;BME280;34607;48.520;-1.330;2022-07-29T10:05:17;100249.84;;;27.17;58.54
48796;BME280;34607;48.520;-1.330;2022-07-29T10:07:48;100260.97;;;27.57;58.47
48796;BME280;34607;48.520;-1.330;2022-07-29T10:10:20;100267.22;;;27.72;57.45
48796;BME280;34607;48.520;-1.330;2022-07-29T10:12:58;100263.03;;;27.83;56.46
48796;BME280;34607;48.520;-1.330;2022-07-29T10:15:27;100259.53;;;28.13;56.76
48796;BME280;34607;48.520;-1.330;2022-07-29T10:17:55;100249.28;;;28.07;56.30
48796;BME280;34607;48.520;-1.330;2022-07-29T10:20:24;100255.38;;;27.77;56.56
48796;BME280;34607;48.520;-1.330;2022-07-29T10:22:53;100273.50;;;27.87;56.54
48796;BME280;34607;48.520;-1.330;2022-07-29T10:25:21;100273.06;;;27.94;56.74
48796;BME280;34607;48.520;-1.330;2022-07-29T10:27:49;100256.88;;;28.13;57.06
48796;BME280;34607;48.520;-1.330;2022-07-29T10:30:17;100264.09;;;28.11;56.23
48796;BME280;34607;48.520;-1.330;2022-07-29T10:32:54;100257.78;;;27.98;56.08
48796;BME280;34607;48.520;-1.330;2022-07-29T10:35:43;100277.00;;;28.19;55.54
48796;BME280;34607;48.520;-1.330;2022-07-29T10:38:47;100268.19;;;28.33;56.05
48796;BME280;34607;48.520;-1.330;2022-07-29T10:41:31;100275.53;;;28.44;56.45
48796;BME280;34607;48.520;-1.330;2022-07-29T10:44:04;100263.38;;;28.54;55.85
48796;BME280;34607;48.520;-1.330;2022-07-29T10:46:35;100238.78;;;28.93;55.18
48796;BME280;34607;48.520;-1.330;2022-07-29T10:49:13;100269.31;;;30.14;54.84
48796;BME280;34607;48.520;-1.330;2022-07-29T10:51:54;100261.13;;;30.96;51.70
48796;BME280;34607;48.520;-1.330;2022-07-29T10:54:42;100264.81;;;31.32;49.81
48796;BME280;34607;48.520;-1.330;2022-07-29T10:57:25;100270.53;;;31.02;51.62
48796;BME280;34607;48.520;-1.330;2022-07-29T11:00:27;100274.56;;;30.69;50.66
48796;BME280;34607;48.520;-1.330;2022-07-29T11:02:55;100269.44;;;30.78;52.97
48796;BME280;34607;48.520;-1.330;2022-07-29T11:05:23;100264.13;;;31.04;51.52
48796;BME280;34607;48.520;-1.330;2022-07-29T11:08:18;100265.47;;;30.84;50.77
48796;BME280;34607;48.520;-1.330;2022-07-29T11:10:49;100264.75;;;31.08;51.76
48796;BME280;34607;48.520;-1.330;2022-07-29T11:13:50;100265.75;;;31.44;49.95
48796;BME280;34607;48.520;-1.330;2022-07-29T11:16:19;100268.16;;;31.97;50.36
48796;BME280;34607;48.520;-1.330;2022-07-29T11:19:19;100260.97;;;32.21;49.85
48796;BME280;34607;48.520;-1.330;2022-07-29T11:21:46;100262.00;;;32.07;50.25
48796;BME280;34607;48.520;-1.330;2022-07-29T11:24:17;100266.06;;;32.60;50.44
48796;BME280;34607;48.520;-1.330;2022-07-29T11:27:06;100267.47;;;32.41;49.16
48796;BME280;34607;48.520;-1.330;2022-07-29T11:29:35;100272.28;;;32.25;49.74
48796;BME280;34607;48.520;-1.330;2022-07-29T11:32:10;100272.31;;;31.77;50.11
48796;BME280;34607;48.520;-1.330;2022-07-29T11:34:37;100280.03;;;31.31;50.72
48796;BME280;34607;48.520;-1.330;2022-07-29T11:40:16;100278.13;;;30.69;50.46
48796;BME280;34607;48.520;-1.330;2022-07-29T11:42:46;100284.53;;;30.79;52.13
48796;BME280;34607;48.520;-1.330;2022-07-29T11:45:44;100276.50;;;31.18;51.28
48796;BME280;34607;48.520;-1.330;2022-07-29T11:48:15;100276.16;;;31.35;50.90
48796;BME280;34607;48.520;-1.330;2022-07-29T11:50:43;100280.97;;;31.43;50.58
48796;BME280;34607;48.520;-1.330;2022-07-29T11:53:12;100268.28;;;31.58;51.13
48796;BME280;34607;48.520;-1.330;2022-07-29T11:55:40;100278.75;;;31.74;50.81
48796;BME280;34607;48.520;-1.330;2022-07-29T11:58:09;100272.19;;;32.26;50.13
48796;BME280;34607;48.520;-1.330;2022-07-29T12:00:38;100286.72;;;32.71;48.87
48796;BME280;34607;48.520;-1.330;2022-07-29T12:03:07;100283.75;;;32.62;49.40
48796;BME280;34607;48.520;-1.330;2022-07-29T12:05:37;100290.34;;;32.70;49.23
48796;BME280;34607;48.520;-1.330;2022-07-29T12:08:10;100290.38;;;32.34;49.40
48796;BME280;34607;48.520;-1.330;2022-07-29T12:10:38;100270.03;;;31.83;49.66
48796;BME280;34607;48.520;-1.330;2022-07-29T12:13:05;100304.25;;;31.67;49.91
48796;BME280;34607;48.520;-1.330;2022-07-29T12:15:34;100302.28;;;31.32;50.34
48796;BME280;34607;48.520;-1.330;2022-07-29T12:18:14;100301.13;;;30.85;50.52
48796;BME280;34607;48.520;-1.330;2022-07-29T12:20:43;100307.63;;;30.68;51.13
48796;BME280;34607;48.520;-1.330;2022-07-29T12:23:13;100297.00;;;30.53;52.02
48796;BME280;34607;48.520;-1.330;2022-07-29T12:25:43;100308.34;;;30.44;52.04
48796;BME280;34607;48.520;-1.330;2022-07-29T12:28:14;100299.78;;;30.12;51.96
48796;BME280;34607;48.520;-1.330;2022-07-29T12:30:47;100305.06;;;29.99;52.97
48796;BME280;34607;48.520;-1.330;2022-07-29T12:33:19;100315.09;;;29.95;53.22
48796;BME280;34607;48.520;-1.330;2022-07-29T12:35:50;100318.38;;;29.86;53.42
48796;BME280;34607;48.520;-1.330;2022-07-29T12:38:19;100302.81;;;29.78;53.66
48796;BME280;34607;48.520;-1.330;2022-07-29T12:40:48;100312.28;;;29.84;54.33
48796;BME280;34607;48.520;-1.330;2022-07-29T12:43:18;100314.34;;;29.93;54.05
48796;BME280;34607;48.520;-1.330;2022-07-29T12:45:50;100314.59;;;30.03;54.61
48796;BME280;34607;48.520;-1.330;2022-07-29T12:48:33;100317.09;;;30.19;53.96
48796;BME280;34607;48.520;-1.330;2022-07-29T12:51:05;100317.75;;;30.22;52.94
48796;BME280;34607;48.520;-1.330;2022-07-29T12:53:36;100322.81;;;30.00;53.09
48796;BME280;34607;48.520;-1.330;2022-07-29T12:56:05;100318.00;;;30.05;53.21
48796;BME280;34607;48.520;-1.330;2022-07-29T12:58:35;100277.28;;;29.74;52.88
48796;BME280;34607;48.520;-1.330;2022-07-29T13:01:10;100309.03;;;30.33;53.56
48796;BME280;34607;48.520;-1.330;2022-07-29T13:03:46;100306.03;;;31.16;53.66